Time;durP1;ratioP1;P1;durP2;ratioP2;P2;SDS_P1;SDS_P2;PMS_P1;PMS_P2;Temp;Humidity;BMP_temperature;BMP_pressure;BME280_temperature;BME280_humidity;BME280_pressure;Samples;Min_cycle;Max_cycle;Signal;HPM_P1;HPM_P2
2022/07/15 00:02:21;;;;;;;2.08;0.68;;;13.20;99.90;;;;;;4934197;29;20514;-76
2022/07/15 00:04:47;;;;;;;2.17;0.65;;;13.20;99.90;;;;;;4917868;29;20057;-76
2022/07/15 00:07:13;;;;;;;1.98;0.50;;;13.20;99.90;;;;;;4930826;29;20136;-76
2022/07/15 00:12:23;;;;;;;3.47;0.80;;;13.30;99.90;;;;;;4923972;29;20410;-76
2022/07/15 00:14:49;;;;;;;3.33;0.82;;;13.30;99.90;;;;;;4933206;29;20039;-76
2022/07/15 00:17:15;;;;;;;1.73;0.70;;;13.40;99.90;;;;;;4930661;29;20352;-76
2022/07/15 00:19:40;;;;;;;1.98;0.60;;;13.40;99.90;;;;;;4930237;29;20032;-76
2022/07/15 00:22:06;;;;;;;3.45;0.85;;;13.50;99.90;;;;;;4934083;29;20043;-76
2022/07/15 00:24:32;;;;;;;2.08;0.60;;;13.50;99.90;;;;;;4933500;29;20483;-76
2022/07/15 00:26:57;;;;;;;1.00;0.50;;;13.50;99.90;;;;;;4935717;29;20044;-76
2022/07/15 00:29:25;;;;;;;2.22;0.70;;;13.60;99.90;;;;;;4933413;29;20114;-76
2022/07/15 00:31:52;;;;;;;1.48;0.50;;;13.60;99.90;;;;;;4926615;29;20427;-76
2022/07/15 00:34:17;;;;;;;1.13;0.50;;;13.60;99.90;;;;;;4926240;29;20043;-76
2022/07/15 00:36:44;;;;;;;1.10;0.30;;;13.60;99.90;;;;;;4902208;29;20050;-76
2022/07/15 00:39:10;;;;;;;1.25;0.50;;;13.60;99.90;;;;;;4932538;29;20111;-76
2022/07/15 00:41:37;;;;;;;0.93;0.32;;;13.70;99.90;;;;;;4933498;29;20044;-76
2022/07/15 00:44:03;;;;;;;0.47;0.30;;;13.70;99.90;;;;;;4933316;29;20040;-76
2022/07/15 00:46:30;;;;;;;1.02;0.40;;;13.60;99.90;;;;;;4930860;29;20406;-76
2022/07/15 00:48:59;;;;;;;0.98;0.40;;;13.60;99.90;;;;;;4934292;29;20098;-76
2022/07/15 00:51:25;;;;;;;1.85;0.40;;;13.60;99.90;;;;;;4928039;29;20079;-76
2022/07/15 00:53:54;;;;;;;1.40;0.50;;;13.60;99.90;;;;;;4922428;29;20126;-76
2022/07/15 00:56:22;;;;;;;1.23;0.40;;;13.60;99.90;;;;;;4932675;29;20051;-77
2022/07/15 00:58:51;;;;;;;1.58;0.40;;;13.50;99.90;;;;;;4917868;29;20075;-76
2022/07/15 01:01:20;;;;;;;2.13;0.50;;;13.60;99.90;;;;;;4926976;29;20127;-76
2022/07/15 01:03:48;;;;;;;2.25;0.47;;;13.40;99.90;;;;;;4946748;28;20169;-76
2022/07/15 01:06:14;;;;;;;1.60;0.57;;;13.40;99.90;;;;;;4949758;29;20047;-76
2022/07/15 01:08:39;;;;;;;1.45;0.22;;;13.40;99.90;;;;;;4936050;29;20055;-76
2022/07/15 01:11:05;;;;;;;1.55;0.57;;;13.40;99.90;;;;;;4950128;28;20036;-77
2022/07/15 01:13:31;;;;;;;1.13;0.50;;;13.30;99.90;;;;;;4953586;29;20039;-76
2022/07/15 01:15:57;;;;;;;1.75;0.55;;;13.30;99.90;;;;;;4954162;29;20126;-76
2022/07/15 01:18:23;;;;;;;1.20;0.38;;;13.30;99.90;;;;;;4934997;29;20114;-76
2022/07/15 01:20:48;;;;;;;1.48;0.73;;;13.40;99.90;;;;;;4937049;29;20047;-76
2022/07/15 01:23:17;;;;;;;1.27;0.47;;;13.40;99.90;;;;;;4934472;29;20043;-76
2022/07/15 01:25:44;;;;;;;0.60;0.30;;;13.40;99.90;;;;;;4935340;29;20055;-76
2022/07/15 01:28:11;;;;;;;1.02;0.38;;;13.40;99.90;;;;;;4936820;29;20471;-76
2022/07/15 01:30:37;;;;;;;1.70;0.50;;;13.40;99.90;;;;;;4933226;29;20706;-76
2022/07/15 01:33:03;;;;;;;1.17;0.32;;;13.40;99.90;;;;;;4935118;29;20050;-76
2022/07/15 01:35:28;;;;;;;1.02;0.35;;;13.50;99.90;;;;;;4936273;28;20039;-76
2022/07/15 01:37:54;;;;;;;1.25;0.50;;;13.50;99.90;;;;;;4936518;29;20418;-76
2022/07/15 01:40:20;;;;;;;2.10;0.70;;;13.50;99.90;;;;;;4936039;29;20043;-76
2022/07/15 01:42:46;;;;;;;1.70;0.50;;;13.40;99.90;;;;;;4931631;29;20047;-76
2022/07/15 01:45:13;;;;;;;1.02;0.35;;;13.40;99.90;;;;;;4932107;29;20046;-77
2022/07/15 01:47:47;;;;;;;2.33;0.50;;;13.40;99.90;;;;;;4936172;29;20475;-76
2022/07/15 01:50:13;;;;;;;1.83;0.40;;;13.40;99.90;;;;;;4927335;29;20056;-76
2022/07/15 01:52:39;;;;;;;;;;;13.40;99.90;;;;;;4936535;29;20102;-76
2022/07/15 01:55:06;;;;;;;0.85;0.30;;;13.40;99.90;;;;;;4928396;29;19922;-76
2022/07/15 01:57:33;;;;;;;1.02;0.50;;;13.40;99.90;;;;;;4936035;29;20086;-76
2022/07/15 01:59:58;;;;;;;;;;;13.40;99.90;;;;;;4954145;29;20058;-77
2022/07/15 02:02:24;;;;;;;2.50;0.45;;;13.50;99.90;;;;;;4928417;29;19926;-76
2022/07/15 02:04:50;;;;;;;2.17;0.60;;;13.40;99.90;;;;;;4935213;29;20047;-78
2022/07/15 02:07:15;;;;;;;1.98;0.40;;;13.40;99.90;;;;;;4935275;29;20039;-77
2022/07/15 02:09:41;;;;;;;1.60;0.45;;;13.40;99.90;;;;;;4932995;29;20077;-77
2022/07/15 02:12:07;;;;;;;0.73;0.30;;;13.30;99.90;;;;;;4935846;29;20039;-76
2022/07/15 02:14:33;;;;;;;1.15;0.45;;;13.30;99.90;;;;;;4919388;29;20050;-77
2022/07/15 02:16:59;;;;;;;;;;;13.20;99.90;;;;;;4951826;29;20118;-77
2022/07/15 02:19:25;;;;;;;1.38;0.47;;;13.20;99.90;;;;;;4935883;29;20045;-77
2022/07/15 02:21:51;;;;;;;0.52;0.20;;;13.10;99.90;;;;;;4932067;29;20039;-77
2022/07/15 02:24:19;;;;;;;0.30;0.20;;;13.00;99.90;;;;;;4948386;29;20415;-77
2022/07/15 02:26:45;;;;;;;0.90;0.30;;;12.90;99.90;;;;;;4933492;29;20043;-77
2022/07/15 02:29:11;;;;;;;1.10;0.28;;;12.90;99.90;;;;;;4932717;29;20050;-77
2022/07/15 02:31:36;;;;;;;0.30;0.17;;;12.80;99.90;;;;;;4935323;29;20130;-77
2022/07/15 02:34:02;;;;;;;0.95;0.20;;;12.80;99.90;;;;;;4931995;29;20128;-77
2022/07/15 02:36:29;;;;;;;0.75;0.32;;;12.70;99.90;;;;;;4944526;29;20061;-77
2022/07/15 02:38:54;;;;;;;0.47;0.20;;;12.70;99.90;;;;;;4934051;29;20051;-77
2022/07/15 02:41:20;;;;;;;0.88;0.20;;;12.70;99.90;;;;;;4937778;29;20059;-77
2022/07/15 02:43:46;;;;;;;0.63;0.13;;;12.60;99.90;;;;;;4935081;29;20134;-77
2022/07/15 02:46:12;;;;;;;1.52;0.20;;;12.60;99.90;;;;;;4919328;29;20070;-76
2022/07/15 02:48:38;;;;;;;0.17;0.10;;;12.60;99.90;;;;;;4935290;29;20458;-77
2022/07/15 02:51:04;;;;;;;0.80;0.20;;;12.50;99.90;;;;;;4921370;29;20121;-77
2022/07/15 02:53:30;;;;;;;0.20;0.10;;;12.50;99.90;;;;;;4938309;29;20186;-77
2022/07/15 02:56:00;;;;;;;0.73;0.20;;;12.40;99.90;;;;;;4932631;28;20121;-77
2022/07/15 02:58:30;;;;;;;0.10;0.10;;;12.30;99.90;;;;;;4944425;28;20092;-77
2022/07/15 03:00:57;;;;;;;0.30;0.10;;;12.30;99.90;;;;;;4954421;28;20082;-77
2022/07/15 03:03:23;;;;;;;0.35;0.20;;;12.20;99.90;;;;;;4936858;28;20491;-77
2022/07/15 03:05:49;;;;;;;0.32;0.10;;;12.20;99.90;;;;;;4936340;29;20054;-77
2022/07/15 03:08:15;;;;;;;0.25;0.10;;;12.20;99.90;;;;;;4947604;28;20050;-77
2022/07/15 03:10:41;;;;;;;0.40;0.20;;;12.20;99.90;;;;;;4944675;28;20061;-77
2022/07/15 03:13:08;;;;;;;0.40;0.13;;;12.10;99.90;;;;;;4945272;29;20043;-77
2022/07/15 03:15:33;;;;;;;;;;;12.10;99.90;;;;;;4949572;28;20043;-77
2022/07/15 03:17:59;;;;;;;1.10;0.30;;;12.10;99.90;;;;;;4942481;28;20068;-77
2022/07/15 03:20:25;;;;;;;0.20;0.05;;;12.10;99.90;;;;;;4948108;28;20043;-77
2022/07/15 03:22:51;;;;;;;0.10;0.10;;;12.10;99.90;;;;;;4947770;29;20058;-77
2022/07/15 03:25:16;;;;;;;0.15;0.08;;;12.00;99.90;;;;;;4931775;29;20136;-77
2022/07/15 03:27:42;;;;;;;0.00;0.00;;;11.90;99.90;;;;;;4922886;29;20058;-77
2022/07/15 03:30:08;;;;;;;0.10;0.00;;;11.90;99.90;;;;;;4935716;29;20613;-77
2022/07/15 03:32:34;;;;;;;0.45;0.15;;;11.90;99.90;;;;;;4934883;28;20062;-77
2022/07/15 03:35:00;;;;;;;0.28;0.10;;;12.00;99.90;;;;;;4939295;29;20126;-77
2022/07/15 03:37:26;;;;;;;0.10;0.00;;;11.90;99.90;;;;;;4933500;29;20499;-77
2022/07/15 03:39:52;;;;;;;0.38;0.20;;;12.00;99.90;;;;;;4943154;29;20036;-77
2022/07/15 03:42:17;;;;;;;0.20;0.10;;;12.00;99.90;;;;;;4932376;29;20453;-77
2022/07/15 03:44:43;;;;;;;0.55;0.20;;;12.00;99.90;;;;;;4931285;28;20035;-78
2022/07/15 03:47:09;;;;;;;0.10;0.08;;;12.00;99.90;;;;;;4941690;29;20066;-78
2022/07/15 03:49:35;;;;;;;0.10;0.10;;;12.00;99.90;;;;;;4950550;28;20058;-78
2022/07/15 03:52:00;;;;;;;0.28;0.00;;;12.10;99.90;;;;;;4946443;28;20046;-78
2022/07/15 03:54:26;;;;;;;0.77;0.10;;;12.10;99.90;;;;;;4939578;28;20525;-77
2022/07/15 03:56:52;;;;;;;0.03;0.00;;;12.10;99.90;;;;;;4940005;29;20043;-77
2022/07/15 03:59:21;;;;;;;0.25;0.10;;;12.20;99.90;;;;;;4929844;29;20051;-77
2022/07/15 04:01:52;;;;;;;0.20;0.10;;;12.20;99.90;;;;;;4923435;29;20106;-76
2022/07/15 04:04:17;;;;;;;0.35;0.10;;;12.20;99.90;;;;;;4933370;29;20085;-77
2022/07/15 04:06:43;;;;;;;0.88;0.20;;;12.20;99.90;;;;;;4915441;29;20086;-77
2022/07/15 04:09:10;;;;;;;0.90;0.30;;;12.30;99.90;;;;;;4935164;29;20051;-77
2022/07/15 04:11:36;;;;;;;0.90;0.20;;;12.40;99.90;;;;;;4950789;29;20503;-77
2022/07/15 04:14:01;;;;;;;1.33;0.30;;;12.40;99.90;;;;;;4951944;28;20039;-77
2022/07/15 04:16:28;;;;;;;0.68;0.30;;;12.50;99.90;;;;;;4921998;29;20545;-77
2022/07/15 04:18:54;;;;;;;0.10;0.03;;;12.50;99.90;;;;;;4938405;29;20055;-77
2022/07/15 04:21:20;;;;;;;0.00;0.00;;;12.60;99.90;;;;;;4937227;29;20062;-77
2022/07/15 04:23:45;;;;;;;0.50;0.03;;;12.60;99.90;;;;;;4937332;29;20050;-77
2022/07/15 04:26:11;;;;;;;0.20;0.15;;;12.70;99.90;;;;;;4936422;29;20043;-77
2022/07/15 04:28:37;;;;;;;0.30;0.15;;;12.70;99.90;;;;;;4936549;29;20549;-76
2022/07/15 04:31:03;;;;;;;1.10;0.20;;;12.70;99.90;;;;;;4936442;29;20038;-76
2022/07/15 04:33:28;;;;;;;0.28;0.20;;;12.80;99.90;;;;;;4931556;29;20050;-76
2022/07/15 04:35:54;;;;;;;0.38;0.20;;;12.80;99.90;;;;;;4936872;29;20486;-77
2022/07/15 04:38:20;;;;;;;0.93;0.25;;;12.90;99.90;;;;;;4927419;29;20047;-76
2022/07/15 04:40:46;;;;;;;0.90;0.20;;;12.90;99.90;;;;;;4944585;28;20039;-76
2022/07/15 04:43:12;;;;;;;1.77;0.45;;;13.00;99.90;;;;;;4948345;29;20047;-75
2022/07/15 04:45:38;;;;;;;0.40;0.20;;;13.10;99.90;;;;;;4957662;28;20102;-75
2022/07/15 04:50:45;;;;;;;0.38;0.17;;;13.20;99.90;;;;;;4956715;28;20963;-75
2022/07/15 04:50:51;;;;;;;1.38;0.28;;;13.30;99.90;;;;;;4947472;29;20050;-76
2022/07/15 04:53:18;;;;;;;1.63;0.40;;;13.40;99.90;;;;;;4936879;29;20055;-76
2022/07/15 04:55:45;;;;;;;1.15;0.30;;;13.50;99.90;;;;;;4943656;28;20074;-75
2022/07/15 04:58:14;;;;;;;1.60;0.35;;;13.60;99.90;;;;;;4947641;28;20462;-75
2022/07/15 05:00:44;;;;;;;1.52;0.40;;;13.60;99.90;;;;;;4942479;29;20051;-76
2022/07/15 05:03:10;;;;;;;2.08;0.30;;;13.60;99.90;;;;;;4948691;28;20070;-76
2022/07/15 05:05:35;;;;;;;1.80;0.38;;;13.70;99.90;;;;;;4938301;29;20047;-76
2022/07/15 05:08:01;;;;;;;0.73;0.30;;;13.60;99.90;;;;;;4922046;29;20035;-76
2022/07/15 05:10:27;;;;;;;2.67;0.70;;;13.70;99.90;;;;;;4940733;28;20359;-76
2022/07/15 05:12:52;;;;;;;1.30;0.40;;;13.60;99.90;;;;;;4973889;28;20043;-77
2022/07/15 05:15:18;;;;;;;0.43;0.10;;;13.60;99.90;;;;;;4948328;28;20516;-76
2022/07/15 05:17:44;;;;;;;1.13;0.35;;;13.60;99.90;;;;;;4948896;29;20062;-76
2022/07/15 05:20:10;;;;;;;1.42;0.40;;;13.60;99.90;;;;;;4951231;28;20478;-76
2022/07/15 05:22:36;;;;;;;0.50;0.20;;;13.60;99.90;;;;;;4946525;28;20047;-76
2022/07/15 05:25:01;;;;;;;0.82;0.30;;;13.60;99.90;;;;;;4920182;29;20039;-76
2022/07/15 05:27:27;;;;;;;0.50;0.25;;;13.70;99.90;;;;;;4939916;28;20055;-76
2022/07/15 05:29:53;;;;;;;0.13;0.03;;;13.70;99.90;;;;;;4944263;28;20053;-76
2022/07/15 05:32:18;;;;;;;2.45;0.30;;;13.80;99.90;;;;;;4940453;28;20454;-76
2022/07/15 05:34:44;;;;;;;0.50;0.20;;;13.80;99.90;;;;;;4930235;29;20495;-76
2022/07/15 05:37:10;;;;;;;0.63;0.20;;;13.90;99.90;;;;;;4934633;29;20078;-76
2022/07/15 05:39:36;;;;;;;0.70;0.20;;;14.00;99.90;;;;;;4933054;29;20348;-76
2022/07/15 05:42:01;;;;;;;1.10;0.20;;;14.10;99.90;;;;;;4966883;28;20035;-76
2022/07/15 05:44:27;;;;;;;0.20;0.10;;;14.20;99.90;;;;;;4937264;29;20047;-76
2022/07/15 05:46:52;;;;;;;1.42;0.20;;;14.30;99.90;;;;;;4925536;29;20043;-76
2022/07/15 05:49:18;;;;;;;0.90;0.22;;;14.40;99.90;;;;;;4931041;29;20050;-76
2022/07/15 05:51:44;;;;;;;0.65;0.22;;;14.50;99.90;;;;;;4926998;29;20090;-75
2022/07/15 05:54:13;;;;;;;1.65;0.32;;;14.60;99.90;;;;;;4930435;28;20054;-76
2022/07/15 05:56:39;;;;;;;2.00;0.45;;;14.60;99.90;;;;;;4948312;29;20122;-76
2022/07/15 05:59:05;;;;;;;2.40;0.43;;;14.60;99.90;;;;;;4933348;29;20530;-76
2022/07/15 06:01:31;;;;;;;0.70;0.25;;;14.70;99.90;;;;;;4927111;28;20538;-76
2022/07/15 06:03:57;;;;;;;4.07;0.77;;;14.70;99.90;;;;;;4972582;28;20089;-76
2022/07/15 06:06:22;;;;;;;2.45;0.90;;;14.70;99.90;;;;;;4954143;28;20448;-76
2022/07/15 06:08:48;;;;;;;0.68;0.20;;;14.70;99.90;;;;;;4933258;29;20078;-75
2022/07/15 06:11:14;;;;;;;1.33;0.35;;;14.70;99.90;;;;;;4926505;29;20186;-77
2022/07/15 06:13:40;;;;;;;1.75;0.40;;;14.70;99.90;;;;;;4934388;29;20106;-76
2022/07/15 06:16:07;;;;;;;2.03;0.40;;;14.70;99.90;;;;;;4952092;29;20058;-75
2022/07/15 06:18:32;;;;;;;1.33;0.40;;;14.70;99.90;;;;;;4936116;28;20120;-76
2022/07/15 06:20:58;;;;;;;2.28;0.50;;;14.70;99.90;;;;;;4936195;28;20479;-76
2022/07/15 06:23:24;;;;;;;1.35;0.40;;;14.70;99.90;;;;;;4942779;29;20150;-76
2022/07/15 06:25:49;;;;;;;2.75;0.50;;;14.70;99.90;;;;;;4932580;29;20444;-76
2022/07/15 06:28:15;;;;;;;1.17;0.40;;;14.70;99.90;;;;;;4938158;28;20054;-76
2022/07/15 06:30:41;;;;;;;1.00;0.20;;;14.80;99.90;;;;;;4930179;29;20380;-75
2022/07/15 06:33:07;;;;;;;1.05;0.30;;;14.80;99.90;;;;;;4929237;28;20054;-76
2022/07/15 06:35:32;;;;;;;2.45;0.40;;;14.90;99.90;;;;;;4951533;28;20534;-75
2022/07/15 06:37:58;;;;;;;3.58;0.50;;;14.90;99.90;;;;;;4932370;29;20372;-76
2022/07/15 06:40:24;;;;;;;1.13;0.22;;;15.00;99.90;;;;;;4945208;28;20542;-76
2022/07/15 06:42:49;;;;;;;1.70;0.30;;;15.00;99.90;;;;;;4930849;29;20578;-75
2022/07/15 06:45:15;;;;;;;1.40;0.38;;;15.00;99.90;;;;;;4945357;28;20048;-76
2022/07/15 06:47:42;;;;;;;0.10;0.10;;;14.90;99.90;;;;;;4947490;28;20059;-76
2022/07/15 06:50:08;;;;;;;0.60;0.28;;;15.00;99.90;;;;;;4917979;29;20042;-75
2022/07/15 06:52:35;;;;;;;0.75;0.22;;;15.00;99.90;;;;;;4928800;29;20111;-75
2022/07/15 06:55:01;;;;;;;0.20;0.10;;;15.10;99.90;;;;;;4932982;29;20050;-74
2022/07/15 06:57:27;;;;;;;0.57;0.30;;;15.20;99.90;;;;;;4932937;29;20138;-74
2022/07/15 06:59:53;;;;;;;0.63;0.10;;;15.20;99.90;;;;;;4949891;28;20041;-74
2022/07/15 07:02:19;;;;;;;1.20;0.50;;;15.20;99.90;;;;;;4916086;29;20138;-74
2022/07/15 07:04:45;;;;;;;1.17;0.40;;;15.20;99.90;;;;;;4951732;29;20130;-74
2022/07/15 07:07:10;;;;;;;1.90;0.45;;;15.40;99.90;;;;;;4934013;28;20057;-74
2022/07/15 07:09:36;;;;;;;0.93;0.40;;;15.60;99.90;;;;;;4937659;29;20057;-73
2022/07/15 07:12:03;;;;;;;1.60;0.40;;;15.80;99.90;;;;;;4916327;29;20071;-73
2022/07/15 07:14:29;;;;;;;;;;;15.90;99.90;;;;;;4936121;29;22133;-74
2022/07/15 07:16:55;;;;;;;2.80;0.45;;;16.10;99.90;;;;;;4948079;29;19957;-74
2022/07/15 07:19:21;;;;;;;1.20;0.43;;;16.20;99.90;;;;;;4945611;29;20450;-74
2022/07/15 07:21:47;;;;;;;2.17;0.57;;;16.40;99.90;;;;;;4934326;29;20050;-74
2022/07/15 07:24:12;;;;;;;2.47;0.50;;;16.60;99.90;;;;;;4931815;29;20455;-75
2022/07/15 07:26:38;;;;;;;2.67;0.50;;;16.70;99.90;;;;;;4933373;29;20560;-74
2022/07/15 07:29:04;;;;;;;1.33;0.40;;;16.90;99.90;;;;;;4932133;29;20287;-74
2022/07/15 07:31:30;;;;;;;1.77;0.40;;;17.10;99.90;;;;;;4932971;29;20047;-74
2022/07/15 07:33:57;;;;;;;2.15;0.40;;;17.00;99.90;;;;;;4932832;29;20047;-73
2022/07/15 07:36:24;;;;;;;3.42;0.63;;;16.80;99.90;;;;;;4934285;28;20094;-74
2022/07/15 07:38:50;;;;;;;2.67;0.50;;;16.40;99.90;;;;;;4937806;28;20110;-74
2022/07/15 07:41:16;;;;;;;1.60;0.50;;;16.20;99.90;;;;;;4937885;28;20047;-74
2022/07/15 07:43:42;;;;;;;1.17;0.40;;;16.00;99.90;;;;;;4935645;29;20051;-74
2022/07/15 07:46:08;;;;;;;3.25;0.50;;;16.00;99.90;;;;;;4932442;29;20050;-74
2022/07/15 07:48:35;;;;;;;1.73;0.35;;;15.80;99.90;;;;;;4936787;29;20197;-74
2022/07/15 07:51:00;;;;;;;1.63;0.40;;;15.90;99.90;;;;;;4906562;29;20039;-74
2022/07/15 07:53:26;;;;;;;1.52;0.40;;;15.90;99.90;;;;;;4937923;29;20046;-74
2022/07/15 07:55:52;;;;;;;;;;;16.00;99.90;;;;;;4945478;28;20410;-74
2022/07/15 07:58:20;;;;;;;0.77;0.35;;;16.00;99.90;;;;;;4944807;29;19946;-74
2022/07/15 08:00:46;;;;;;;1.55;0.40;;;16.10;99.90;;;;;;4935587;29;20138;-74
2022/07/15 08:03:12;;;;;;;1.63;0.50;;;16.20;99.90;;;;;;4933071;29;20138;-73
2022/07/15 08:05:38;;;;;;;0.65;0.20;;;16.20;99.90;;;;;;4940099;28;20121;-74
2022/07/15 08:08:09;;;;;;;1.08;0.40;;;16.40;99.90;;;;;;4939966;29;20047;-74
2022/07/15 08:10:35;;;;;;;1.52;0.35;;;16.50;99.90;;;;;;4930188;29;20043;-74
2022/07/15 08:13:01;;;;;;;0.73;0.30;;;16.70;99.90;;;;;;4935500;29;20126;-74
2022/07/15 08:15:27;;;;;;;1.02;0.40;;;17.10;99.90;;;;;;4934914;29;20078;-75
2022/07/15 08:17:52;;;;;;;;;;;17.30;99.90;;;;;;4936540;29;20098;-74
2022/07/15 08:20:18;;;;;;;1.00;0.30;;;17.00;99.90;;;;;;4917806;29;19931;-74
2022/07/15 08:22:44;;;;;;;1.40;0.38;;;16.60;99.90;;;;;;4939038;28;20111;-76
2022/07/15 08:25:10;;;;;;;1.20;0.30;;;16.40;99.90;;;;;;4934116;29;20046;-75
2022/07/15 08:27:35;;;;;;;0.95;0.30;;;16.00;99.90;;;;;;4935043;29;20495;-75
2022/07/15 08:30:01;;;;;;;1.38;0.30;;;15.90;99.90;;;;;;4946585;29;20097;-70
2022/07/15 08:32:27;;;;;;;0.95;0.28;;;15.80;99.90;;;;;;4933458;29;20058;-70
2022/07/15 08:34:52;;;;;;;1.00;0.20;;;15.90;99.90;;;;;;4935325;29;20458;-70
2022/07/15 08:37:18;;;;;;;1.17;0.30;;;16.00;99.90;;;;;;4936031;29;20094;-70
2022/07/15 08:39:44;;;;;;;0.45;0.20;;;16.20;99.90;;;;;;4934220;29;20053;-70
2022/07/15 08:42:10;;;;;;;1.02;0.28;;;16.30;99.90;;;;;;4934443;29;20043;-70
2022/07/15 08:44:36;;;;;;;0.47;0.15;;;16.50;99.90;;;;;;4936703;28;20047;-70
2022/07/15 08:47:05;;;;;;;1.48;0.40;;;16.80;99.90;;;;;;4935983;29;20086;-70
2022/07/15 08:49:32;;;;;;;1.15;0.40;;;17.00;99.90;;;;;;4935206;29;20102;-70
2022/07/15 08:52:00;;;;;;;0.55;0.20;;;17.10;99.90;;;;;;4933203;29;20114;-70
2022/07/15 08:54:26;;;;;;;0.93;0.32;;;17.00;99.90;;;;;;4932924;29;20098;-70
2022/07/15 08:56:52;;;;;;;0.73;0.20;;;17.10;99.90;;;;;;4933055;28;20059;-70
2022/07/15 08:59:18;;;;;;;0.22;0.10;;;17.10;99.90;;;;;;4936154;29;20788;-70
2022/07/15 09:01:45;;;;;;;;;;;17.20;99.90;;;;;;4935561;29;20114;-70
2022/07/15 09:04:12;;;;;;;1.00;0.20;;;17.20;99.90;;;;;;4932427;29;19922;-70
2022/07/15 09:06:38;;;;;;;0.40;0.20;;;17.20;99.90;;;;;;4933567;29;20090;-70
2022/07/15 09:09:23;;;;;;;1.83;0.30;;;17.30;99.90;;;;;;4922334;29;20049;-70
2022/07/15 09:12:12;;;;;;;0.38;0.20;;;17.10;99.90;;;;;;4934757;29;20050;-71
2022/07/15 09:14:42;;;;;;;0.75;0.20;;;17.10;99.90;;;;;;4920646;29;20059;-71
2022/07/15 09:17:11;;;;;;;0.98;0.30;;;17.00;99.90;;;;;;4930761;29;20051;-71
2022/07/15 09:20:04;;;;;;;1.20;0.38;;;17.00;99.90;;;;;;4931192;28;20126;-71
2022/07/15 09:22:33;;;;;;;2.20;0.40;;;17.00;99.90;;;;;;4928070;28;20051;-71
2022/07/15 09:25:07;;;;;;;1.02;0.20;;;17.10;99.90;;;;;;4931927;29;20045;-70
2022/07/15 09:27:37;;;;;;;1.08;0.13;;;17.30;99.90;;;;;;4932517;29;20094;-70
2022/07/15 09:36:13;;;;;;;0.77;0.22;;;18.00;99.90;;;;;;4933684;29;20051;-70
2022/07/15 09:38:55;;;;;;;1.17;0.30;;;18.00;99.90;;;;;;4933580;29;20054;-70
2022/07/15 09:41:28;;;;;;;1.45;0.20;;;17.90;99.90;;;;;;4935297;29;20054;-70
2022/07/15 09:44:05;;;;;;;1.45;0.10;;;17.90;99.90;;;;;;4936527;29;20082;-69
2022/07/15 09:46:48;;;;;;;1.63;0.25;;;18.00;99.90;;;;;;4935651;29;20050;-69
2022/07/15 09:49:26;;;;;;;2.08;0.60;;;18.00;99.90;;;;;;4923895;29;20078;-69
2022/07/15 09:51:54;;;;;;;0.88;0.30;;;17.90;99.90;;;;;;4936507;29;20086;-69
2022/07/15 09:54:21;;;;;;;1.08;0.30;;;18.00;99.90;;;;;;4934256;29;20050;-69
2022/07/15 09:56:48;;;;;;;1.10;0.35;;;18.10;99.90;;;;;;4952988;28;20079;-69
2022/07/15 09:59:15;;;;;;;1.30;0.20;;;18.10;99.90;;;;;;4935582;29;20122;-70
2022/07/15 10:01:42;;;;;;;0.85;0.20;;;18.20;99.90;;;;;;4968709;28;20117;-70
2022/07/15 10:04:09;;;;;;;2.40;0.40;;;18.40;99.90;;;;;;4955591;28;20121;-70
2022/07/15 10:06:37;;;;;;;2.55;0.30;;;18.30;99.90;;;;;;4955538;28;20046;-69
2022/07/15 10:09:05;;;;;;;2.08;0.50;;;18.30;99.90;;;;;;4950243;28;20042;-70
2022/07/15 10:11:33;;;;;;;1.85;0.45;;;18.20;99.90;;;;;;4952806;28;20112;-70
2022/07/15 10:14:11;;;;;;;0.65;0.30;;;18.40;99.90;;;;;;4955486;28;20108;-70
2022/07/15 10:16:52;;;;;;;0.63;0.30;;;18.60;99.90;;;;;;4948183;28;20129;-69
2022/07/15 10:19:30;;;;;;;0.35;0.20;;;18.90;99.90;;;;;;4924929;29;20467;-70
2022/07/15 10:22:04;;;;;;;0.63;0.20;;;19.00;99.90;;;;;;4934889;28;20066;-70
2022/07/15 10:24:43;;;;;;;0.95;0.20;;;19.00;99.40;;;;;;4950108;28;20123;-69
2022/07/15 10:27:30;;;;;;;2.08;0.45;;;18.90;99.90;;;;;;4932648;28;20054;-70
2022/07/15 10:29:56;;;;;;;3.03;0.30;;;18.80;99.90;;;;;;4953044;28;20054;-70
2022/07/15 10:32:22;;;;;;;0.80;0.40;;;18.60;99.90;;;;;;4972447;28;20178;-70
2022/07/15 10:34:48;;;;;;;;;;;19.00;99.90;;;;;;4955201;28;20514;-69
2022/07/15 10:37:14;;;;;;;0.98;0.20;;;19.00;99.40;;;;;;4946347;28;20383;-70
2022/07/15 10:39:48;;;;;;;0.43;0.20;;;18.90;99.00;;;;;;4949280;29;20043;-69
2022/07/15 10:42:14;;;;;;;0.98;0.30;;;18.90;99.90;;;;;;4948913;28;20155;-70
2022/07/15 10:45:11;;;;;;;0.30;0.13;;;18.60;99.40;;;;;;4939112;28;20039;-70
2022/07/15 10:47:37;;;;;;;1.17;0.38;;;18.70;99.00;;;;;;4951222;28;20186;-69
2022/07/15 10:50:35;;;;;;;0.63;0.20;;;18.40;99.10;;;;;;4954830;28;20050;-70
2022/07/15 10:53:20;;;;;;;1.77;0.38;;;18.40;99.90;;;;;;4950363;28;20054;-69
2022/07/15 10:55:46;;;;;;;2.00;0.40;;;18.20;99.90;;;;;;4953839;28;20051;-70
2022/07/15 10:58:11;;;;;;;;;;;18.10;99.90;;;;;;4972698;28;20101;-69
2022/07/15 11:00:37;;;;;;;0.80;0.22;;;18.20;99.90;;;;;;4949616;28;19921;-69
2022/07/15 11:03:09;;;;;;;;;;;18.20;99.60;;;;;;4955062;28;20058;-69
2022/07/15 11:05:56;;;;;;;0.55;0.20;;;18.20;99.40;;;;;;4935083;29;20446;-69
2022/07/15 11:08:31;;;;;;;0.35;0.25;;;18.10;99.40;;;;;;4922563;28;20059;-69
2022/07/15 11:11:15;;;;;;;0.43;0.20;;;18.10;99.90;;;;;;4945769;28;20050;-70
2022/07/15 11:13:46;;;;;;;0.77;0.20;;;18.20;99.90;;;;;;4941080;28;20034;-70
2022/07/15 11:16:14;;;;;;;0.70;0.28;;;18.30;99.50;;;;;;4954201;28;20051;-70
2022/07/15 11:18:51;;;;;;;0.70;0.20;;;18.40;98.90;;;;;;4931820;28;20471;-70
2022/07/15 11:21:17;;;;;;;1.17;0.30;;;18.50;99.60;;;;;;4954452;28;20126;-70
2022/07/15 11:23:43;;;;;;;3.40;0.30;;;18.50;99.10;;;;;;4933188;28;20139;-70
2022/07/15 11:26:09;;;;;;;;;;;18.50;99.20;;;;;;4954725;28;20045;-70
2022/07/15 11:28:36;;;;;;;0.68;0.20;;;18.60;98.80;;;;;;4954660;28;19922;-69
2022/07/15 11:31:02;;;;;;;1.15;0.38;;;18.60;99.60;;;;;;4953964;28;20050;-70
2022/07/15 11:33:29;;;;;;;0.17;0.10;;;18.70;99.20;;;;;;4954376;28;20054;-69
2022/07/15 11:36:02;;;;;;;1.73;0.30;;;18.70;98.50;;;;;;4953714;28;20062;-70
2022/07/15 11:38:30;;;;;;;1.98;0.30;;;18.70;98.90;;;;;;4948143;29;20059;-70
2022/07/15 11:46:30;;;;;;;0.57;0.10;;;18.90;99.70;;;;;;4929800;28;20047;-69
2022/07/15 11:48:57;;;;;;;2.28;0.30;;;19.00;99.00;;;;;;4954315;28;20053;-70
2022/07/15 11:51:26;;;;;;;1.17;0.30;;;18.90;99.80;;;;;;4954071;28;20041;-70
2022/07/15 11:53:52;;;;;;;0.47;0.20;;;19.10;99.90;;;;;;4942351;29;20102;-69
2022/07/15 11:56:17;;;;;;;;;;;19.50;99.90;;;;;;4953074;28;20043;-70
2022/07/15 11:58:46;;;;;;;3.15;0.60;;;20.10;98.30;;;;;;4954199;28;19922;-70
2022/07/15 12:01:20;;;;;;;1.60;0.30;;;20.10;97.50;;;;;;4948070;28;20466;-70
2022/07/15 12:03:51;;;;;;;1.40;0.45;;;20.20;95.80;;;;;;4953584;28;20059;-69
2022/07/15 12:06:19;;;;;;;1.02;0.20;;;19.90;96.00;;;;;;4946356;28;20153;-69
2022/07/15 12:08:49;;;;;;;1.40;0.30;;;19.70;96.80;;;;;;4945389;29;20047;-70
2022/07/15 12:11:23;;;;;;;0.88;0.30;;;19.40;98.60;;;;;;4918295;29;20086;-71
2022/07/15 12:13:55;;;;;;;1.65;0.47;;;19.00;99.90;;;;;;4925987;29;20551;-72
2022/07/15 12:16:25;;;;;;;1.42;0.45;;;18.60;99.90;;;;;;4933621;29;20059;-71
2022/07/15 12:18:56;;;;;;;2.65;0.43;;;18.40;99.90;;;;;;4934204;29;20050;-71
2022/07/15 12:21:22;;;;;;;0.85;0.47;;;18.20;99.90;;;;;;4931026;29;20048;-71
2022/07/15 12:24:01;;;;;;;0.57;0.30;;;18.10;99.90;;;;;;4918326;29;20043;-70
2022/07/15 12:26:27;;;;;;;0.88;0.40;;;18.10;99.90;;;;;;4934356;29;20043;-71
2022/07/15 12:28:54;;;;;;;;;;;18.10;99.90;;;;;;4936894;29;20122;-71
2022/07/15 12:31:33;;;;;;;2.30;0.52;;;18.10;99.90;;;;;;4937219;29;20374;-71
2022/07/15 12:34:00;;;;;;;1.50;0.40;;;18.10;99.90;;;;;;4935202;29;20062;-70
2022/07/15 12:36:33;;;;;;;1.63;0.40;;;18.10;99.90;;;;;;4947150;29;20042;-70
2022/07/15 12:39:04;;;;;;;0.70;0.30;;;18.10;99.90;;;;;;4936378;29;20414;-70
2022/07/15 12:41:30;;;;;;;1.75;0.55;;;18.10;99.90;;;;;;4932544;29;20047;-71
2022/07/15 12:43:57;;;;;;;;;;;18.10;99.90;;;;;;4954965;29;20478;-71
2022/07/15 12:46:56;;;;;;;1.65;0.63;;;18.20;99.90;;;;;;4946821;29;19927;-70
2022/07/15 12:49:51;;;;;;;1.05;0.40;;;18.30;99.90;;;;;;4937512;29;20051;-71
2022/07/15 12:52:31;;;;;;;3.17;0.63;;;18.30;99.90;;;;;;4929102;28;20089;-70
2022/07/15 12:54:59;;;;;;;1.83;0.45;;;18.20;99.90;;;;;;4932867;28;20074;-71
2022/07/15 12:57:36;;;;;;;1.35;0.50;;;18.10;99.90;;;;;;4945963;29;20118;-71
2022/07/15 13:00:22;;;;;;;2.15;0.50;;;18.10;99.90;;;;;;4939622;28;20077;-71
2022/07/15 13:03:10;;;;;;;2.45;0.80;;;18.20;99.90;;;;;;4933747;29;20062;-72
2022/07/15 13:05:42;;;;;;;2.67;0.70;;;18.10;99.90;;;;;;4947786;28;20055;-71
2022/07/15 13:08:19;;;;;;;1.65;0.50;;;18.20;99.90;;;;;;4939045;29;20127;-71
2022/07/15 13:10:47;;;;;;;0.47;0.32;;;18.40;99.90;;;;;;4948146;28;20442;-71